sensor_id;sensor_type;location;lat;lon;timestamp;P1;durP1;ratioP1;P2;durP2;ratioP2
51292;SDS011;37377;45.186;9.778;2023-04-03T00:00:06;13.20;;;7.05;;
51292;SDS011;37377;45.186;9.778;2023-04-03T00:02:33;10.07;;;6.72;;
51292;SDS011;37377;45.186;9.778;2023-04-03T00:05:00;9.68;;;6.38;;
51292;SDS011;37377;45.186;9.778;2023-04-03T00:07:28;9.57;;;6.03;;
51292;SDS011;37377;45.186;9.778;2023-04-03T00:09:55;8.35;;;7.25;;
51292;SDS011;37377;45.186;9.778;2023-04-03T00:12:22;10.27;;;8.05;;
51292;SDS011;37377;45.186;9.778;2023-04-03T00:14:49;9.57;;;7.55;;
51292;SDS011;37377;45.186;9.778;2023-04-03T00:17:16;16.25;;;7.82;;
51292;SDS011;37377;45.186;9.778;2023-04-03T00:19:43;8.50;;;7.20;;
51292;SDS011;37377;45.186;9.778;2023-04-03T00:22:09;12.63;;;7.32;;
51292;SDS011;37377;45.186;9.778;2023-04-03T00:24:37;15.15;;;8.45;;
51292;SDS011;37377;45.186;9.778;2023-04-03T00:27:04;16.98;;;8.32;;
51292;SDS011;37377;45.186;9.778;2023-04-03T00:29:31;15.00;;;8.65;;
51292;SDS011;37377;45.186;9.778;2023-04-03T00:31:58;13.45;;;9.02;;
51292;SDS011;37377;45.186;9.778;2023-04-03T00:34:25;15.10;;;7.72;;
51292;SDS011;37377;45.186;9.778;2023-04-03T00:36:51;10.43;;;7.95;;
51292;SDS011;37377;45.186;9.778;2023-04-03T00:39:18;14.13;;;8.07;;
51292;SDS011;37377;45.186;9.778;2023-04-03T00:41:45;9.02;;;7.80;;
51292;SDS011;37377;45.186;9.778;2023-04-03T00:44:19;10.50;;;7.82;;
51292;SDS011;37377;45.186;9.778;2023-04-03T00:46:47;10.98;;;8.27;;
51292;SDS011;37377;45.186;9.778;2023-04-03T00:49:14;9.57;;;8.73;;
51292;SDS011;37377;45.186;9.778;2023-04-03T00:51:41;14.40;;;9.52;;
51292;SDS011;37377;45.186;9.778;2023-04-03T00:54:09;16.90;;;9.40;;
51292;SDS011;37377;45.186;9.778;2023-04-03T00:56:36;10.40;;;7.80;;
51292;SDS011;37377;45.186;9.778;2023-04-03T00:59:04;8.02;;;6.65;;
51292;SDS011;37377;45.186;9.778;2023-04-03T01:01:32;13.43;;;7.43;;
51292;SDS011;37377;45.186;9.778;2023-04-03T01:03:59;10.55;;;7.55;;
51292;SDS011;37377;45.186;9.778;2023-04-03T01:06:28;12.68;;;8.07;;
51292;SDS011;37377;45.186;9.778;2023-04-03T01:09:03;14.35;;;8.30;;
51292;SDS011;37377;45.186;9.778;2023-04-03T01:11:30;15.70;;;7.95;;
51292;SDS011;37377;45.186;9.778;2023-04-03T01:13:59;11.60;;;8.30;;
51292;SDS011;37377;45.186;9.778;2023-04-03T01:16:28;10.38;;;7.75;;
51292;SDS011;37377;45.186;9.778;2023-04-03T01:18:58;11.88;;;8.10;;
51292;SDS011;37377;45.186;9.778;2023-04-03T01:26:40;13.80;;;8.73;;
51292;SDS011;37377;45.186;9.778;2023-04-03T01:29:07;12.18;;;8.52;;
51292;SDS011;37377;45.186;9.778;2023-04-03T01:34:01;16.25;;;9.30;;
51292;SDS011;37377;45.186;9.778;2023-04-03T01:36:31;13.10;;;9.10;;
51292;SDS011;37377;45.186;9.778;2023-04-03T01:38:58;13.27;;;9.63;;
51292;SDS011;37377;45.186;9.778;2023-04-03T01:41:26;11.98;;;10.07;;
51292;SDS011;37377;45.186;9.778;2023-04-03T01:44:00;10.63;;;8.77;;
51292;SDS011;37377;45.186;9.778;2023-04-03T01:46:27;13.15;;;9.70;;
51292;SDS011;37377;45.186;9.778;2023-04-03T01:48:53;17.30;;;9.32;;
51292;SDS011;37377;45.186;9.778;2023-04-03T01:51:20;19.50;;;10.02;;
51292;SDS011;37377;45.186;9.778;2023-04-03T01:53:47;11.38;;;9.07;;
51292;SDS011;37377;45.186;9.778;2023-04-03T01:56:14;14.07;;;10.45;;
51292;SDS011;37377;45.186;9.778;2023-04-03T01:58:41;11.63;;;10.52;;
51292;SDS011;37377;45.186;9.778;2023-04-03T02:01:08;12.05;;;10.45;;
51292;SDS011;37377;45.186;9.778;2023-04-03T02:03:36;16.38;;;9.85;;
51292;SDS011;37377;45.186;9.778;2023-04-03T02:06:03;13.95;;;10.68;;
51292;SDS011;37377;45.186;9.778;2023-04-03T02:08:32;12.02;;;10.27;;
51292;SDS011;37377;45.186;9.778;2023-04-03T02:10:59;12.25;;;9.95;;
51292;SDS011;37377;45.186;9.778;2023-04-03T02:13:26;11.40;;;10.18;;
51292;SDS011;37377;45.186;9.778;2023-04-03T02:15:53;40.28;;;10.75;;
51292;SDS011;37377;45.186;9.778;2023-04-03T02:18:20;12.35;;;10.95;;
51292;SDS011;37377;45.186;9.778;2023-04-03T02:20:47;19.02;;;11.07;;
51292;SDS011;37377;45.186;9.778;2023-04-03T02:23:14;17.98;;;12.02;;
51292;SDS011;37377;45.186;9.778;2023-04-03T02:25:41;16.38;;;11.82;;
51292;SDS011;37377;45.186;9.778;2023-04-03T02:28:09;12.82;;;11.45;;
51292;SDS011;37377;45.186;9.778;2023-04-03T02:30:36;18.02;;;11.57;;
51292;SDS011;37377;45.186;9.778;2023-04-03T02:33:06;14.00;;;11.45;;
51292;SDS011;37377;45.186;9.778;2023-04-03T02:36:06;17.23;;;11.98;;
51292;SDS011;37377;45.186;9.778;2023-04-03T02:38:44;14.52;;;11.63;;
51292;SDS011;37377;45.186;9.778;2023-04-03T02:41:22;12.43;;;11.10;;
51292;SDS011;37377;45.186;9.778;2023-04-03T02:43:53;12.68;;;10.82;;
51292;SDS011;37377;45.186;9.778;2023-04-03T02:46:23;11.60;;;10.40;;
51292;SDS011;37377;45.186;9.778;2023-04-03T02:48:52;11.52;;;10.52;;
51292;SDS011;37377;45.186;9.778;2023-04-03T02:51:23;14.70;;;10.80;;
51292;SDS011;37377;45.186;9.778;2023-04-03T02:54:01;15.38;;;10.95;;
51292;SDS011;37377;45.186;9.778;2023-04-03T02:56:45;16.85;;;11.23;;
51292;SDS011;37377;45.186;9.778;2023-04-03T02:59:19;16.25;;;10.82;;
51292;SDS011;37377;45.186;9.778;2023-04-03T03:02:07;14.57;;;10.23;;
51292;SDS011;37377;45.186;9.778;2023-04-03T03:04:43;11.32;;;10.23;;
51292;SDS011;37377;45.186;9.778;2023-04-03T03:07:17;16.27;;;9.98;;
51292;SDS011;37377;45.186;9.778;2023-04-03T03:09:54;13.45;;;11.52;;
51292;SDS011;37377;45.186;9.778;2023-04-03T03:12:29;17.27;;;11.73;;
51292;SDS011;37377;45.186;9.778;2023-04-03T03:15:11;13.95;;;10.95;;
51292;SDS011;37377;45.186;9.778;2023-04-03T03:17:50;15.75;;;11.45;;
51292;SDS011;37377;45.186;9.778;2023-04-03T03:20:30;16.67;;;11.02;;
51292;SDS011;37377;45.186;9.778;2023-04-03T03:23:00;16.55;;;11.50;;
51292;SDS011;37377;45.186;9.778;2023-04-03T03:25:28;19.27;;;11.90;;
51292;SDS011;37377;45.186;9.778;2023-04-03T03:27:55;15.27;;;10.50;;
51292;SDS011;37377;45.186;9.778;2023-04-03T03:30:22;15.90;;;12.27;;
51292;SDS011;37377;45.186;9.778;2023-04-03T03:32:49;14.52;;;11.57;;
51292;SDS011;37377;45.186;9.778;2023-04-03T03:35:16;14.32;;;11.00;;
51292;SDS011;37377;45.186;9.778;2023-04-03T03:37:43;11.82;;;10.40;;
51292;SDS011;37377;45.186;9.778;2023-04-03T03:40:10;17.33;;;11.05;;
51292;SDS011;37377;45.186;9.778;2023-04-03T03:42:39;13.65;;;11.25;;
51292;SDS011;37377;45.186;9.778;2023-04-03T03:45:07;15.90;;;11.63;;
51292;SDS011;37377;45.186;9.778;2023-04-03T03:47:34;14.77;;;11.45;;
51292;SDS011;37377;45.186;9.778;2023-04-03T03:50:01;16.20;;;11.55;;
51292;SDS011;37377;45.186;9.778;2023-04-03T03:52:28;15.55;;;11.68;;
51292;SDS011;37377;45.186;9.778;2023-04-03T03:54:56;18.60;;;11.57;;
51292;SDS011;37377;45.186;9.778;2023-04-03T03:57:23;17.55;;;12.38;;
51292;SDS011;37377;45.186;9.778;2023-04-03T03:59:50;16.95;;;12.23;;
51292;SDS011;37377;45.186;9.778;2023-04-03T04:02:19;17.90;;;13.05;;
51292;SDS011;37377;45.186;9.778;2023-04-03T04:04:46;17.95;;;12.25;;
51292;SDS011;37377;45.186;9.778;2023-04-03T04:07:13;34.65;;;13.77;;
51292;SDS011;37377;45.186;9.778;2023-04-03T04:09:41;13.70;;;11.95;;
51292;SDS011;37377;45.186;9.778;2023-04-03T04:12:08;16.77;;;12.77;;
51292;SDS011;37377;45.186;9.778;2023-04-03T04:14:36;37.85;;;15.25;;
51292;SDS011;37377;45.186;9.778;2023-04-03T04:17:04;24.38;;;13.30;;
51292;SDS011;37377;45.186;9.778;2023-04-03T04:19:31;25.45;;;14.18;;
51292;SDS011;37377;45.186;9.778;2023-04-03T04:21:59;18.08;;;13.50;;
51292;SDS011;37377;45.186;9.778;2023-04-03T04:24:28;17.15;;;13.82;;
51292;SDS011;37377;45.186;9.778;2023-04-03T04:26:56;30.77;;;14.30;;
51292;SDS011;37377;45.186;9.778;2023-04-03T04:29:24;25.45;;;14.52;;
51292;SDS011;37377;45.186;9.778;2023-04-03T04:31:51;18.45;;;13.25;;
51292;SDS011;37377;45.186;9.778;2023-04-03T04:34:20;26.40;;;14.05;;
51292;SDS011;37377;45.186;9.778;2023-04-03T04:36:47;28.48;;;13.45;;
51292;SDS011;37377;45.186;9.778;2023-04-03T04:39:13;39.95;;;13.85;;
51292;SDS011;37377;45.186;9.778;2023-04-03T04:41:40;12.77;;;11.48;;
51292;SDS011;37377;45.186;9.778;2023-04-03T04:44:08;21.75;;;11.40;;
51292;SDS011;37377;45.186;9.778;2023-04-03T04:46:35;13.23;;;10.90;;
51292;SDS011;37377;45.186;9.778;2023-04-03T04:49:03;15.73;;;10.82;;
51292;SDS011;37377;45.186;9.778;2023-04-03T04:51:30;12.57;;;10.52;;
51292;SDS011;37377;45.186;9.778;2023-04-03T04:54:15;33.95;;;17.75;;
51292;SDS011;37377;45.186;9.778;2023-04-03T04:56:44;24.48;;;17.08;;
51292;SDS011;37377;45.186;9.778;2023-04-03T04:59:11;19.85;;;13.80;;
51292;SDS011;37377;45.186;9.778;2023-04-03T05:01:39;18.60;;;12.52;;
51292;SDS011;37377;45.186;9.778;2023-04-03T05:04:11;22.00;;;12.10;;
51292;SDS011;37377;45.186;9.778;2023-04-03T05:06:39;20.42;;;14.43;;
51292;SDS011;37377;45.186;9.778;2023-04-03T05:09:11;18.15;;;15.07;;
51292;SDS011;37377;45.186;9.778;2023-04-03T05:11:40;20.67;;;13.38;;
51292;SDS011;37377;45.186;9.778;2023-04-03T05:14:07;21.55;;;12.98;;
51292;SDS011;37377;45.186;9.778;2023-04-03T05:16:36;28.15;;;14.05;;
51292;SDS011;37377;45.186;9.778;2023-04-03T05:19:03;18.27;;;13.05;;
51292;SDS011;37377;45.186;9.778;2023-04-03T05:21:31;23.52;;;12.60;;
51292;SDS011;37377;45.186;9.778;2023-04-03T05:24:03;26.95;;;12.18;;
51292;SDS011;37377;45.186;9.778;2023-04-03T05:26:33;30.02;;;11.20;;
51292;SDS011;37377;45.186;9.778;2023-04-03T05:29:01;25.27;;;10.65;;
51292;SDS011;37377;45.186;9.778;2023-04-03T05:31:28;28.95;;;10.93;;
51292;SDS011;37377;45.186;9.778;2023-04-03T05:33:57;23.48;;;10.68;;
51292;SDS011;37377;45.186;9.778;2023-04-03T05:36:26;27.13;;;11.55;;
51292;SDS011;37377;45.186;9.778;2023-04-03T05:38:58;33.88;;;9.18;;
51292;SDS011;37377;45.186;9.778;2023-04-03T05:41:25;25.83;;;8.43;;
51292;SDS011;37377;45.186;9.778;2023-04-03T05:43:52;27.60;;;7.60;;
51292;SDS011;37377;45.186;9.778;2023-04-03T05:46:20;20.23;;;6.28;;
51292;SDS011;37377;45.186;9.778;2023-04-03T05:48:52;28.00;;;6.55;;
51292;SDS011;37377;45.186;9.778;2023-04-03T05:51:22;15.68;;;5.85;;
51292;SDS011;37377;45.186;9.778;2023-04-03T05:53:52;16.70;;;5.57;;
51292;SDS011;37377;45.186;9.778;2023-04-03T05:56:22;14.13;;;5.70;;
51292;SDS011;37377;45.186;9.778;2023-04-03T05:58:48;8.30;;;4.78;;
51292;SDS011;37377;45.186;9.778;2023-04-03T06:01:15;10.38;;;5.30;;
51292;SDS011;37377;45.186;9.778;2023-04-03T06:03:43;15.60;;;5.15;;
51292;SDS011;37377;45.186;9.778;2023-04-03T06:06:12;18.83;;;5.30;;
51292;SDS011;37377;45.186;9.778;2023-04-03T06:08:39;12.02;;;5.15;;
51292;SDS011;37377;45.186;9.778;2023-04-03T06:11:06;18.65;;;6.28;;
51292;SDS011;37377;45.186;9.778;2023-04-03T06:13:35;14.98;;;5.85;;
51292;SDS011;37377;45.186;9.778;2023-04-03T06:16:01;87.10;;;8.43;;
51292;SDS011;37377;45.186;9.778;2023-04-03T06:18:29;11.85;;;5.13;;
51292;SDS011;37377;45.186;9.778;2023-04-03T06:20:57;18.92;;;4.90;;
51292;SDS011;37377;45.186;9.778;2023-04-03T06:23:24;35.83;;;6.68;;
51292;SDS011;37377;45.186;9.778;2023-04-03T06:25:51;59.10;;;7.90;;
51292;SDS011;37377;45.186;9.778;2023-04-03T06:28:18;21.67;;;5.47;;
51292;SDS011;37377;45.186;9.778;2023-04-03T06:30:45;18.67;;;4.97;;
51292;SDS011;37377;45.186;9.778;2023-04-03T06:33:12;74.18;;;7.28;;
51292;SDS011;37377;45.186;9.778;2023-04-03T06:35:39;20.00;;;5.38;;
51292;SDS011;37377;45.186;9.778;2023-04-03T06:38:06;12.93;;;4.78;;
51292;SDS011;37377;45.186;9.778;2023-04-03T06:40:37;22.25;;;5.20;;
51292;SDS011;37377;45.186;9.778;2023-04-03T06:43:35;14.60;;;4.90;;
51292;SDS011;37377;45.186;9.778;2023-04-03T06:46:02;18.25;;;5.30;;
51292;SDS011;37377;45.186;9.778;2023-04-03T06:48:29;11.48;;;5.07;;
51292;SDS011;37377;45.186;9.778;2023-04-03T06:50:56;38.30;;;5.57;;
51292;SDS011;37377;45.186;9.778;2023-04-03T06:53:23;21.60;;;5.32;;
51292;SDS011;37377;45.186;9.778;2023-04-03T06:55:50;25.95;;;5.45;;
51292;SDS011;37377;45.186;9.778;2023-04-03T06:58:17;14.52;;;5.28;;
51292;SDS011;37377;45.186;9.778;2023-04-03T07:00:47;17.33;;;6.10;;
51292;SDS011;37377;45.186;9.778;2023-04-03T07:03:14;16.67;;;5.30;;
51292;SDS011;37377;45.186;9.778;2023-04-03T07:05:40;13.73;;;6.10;;
51292;SDS011;37377;45.186;9.778;2023-04-03T07:08:10;14.63;;;5.70;;
51292;SDS011;37377;45.186;9.778;2023-04-03T07:10:37;20.60;;;5.72;;
51292;SDS011;37377;45.186;9.778;2023-04-03T07:13:04;21.02;;;6.03;;
51292;SDS011;37377;45.186;9.778;2023-04-03T07:15:31;15.43;;;6.07;;
51292;SDS011;37377;45.186;9.778;2023-04-03T07:17:58;25.25;;;6.82;;
51292;SDS011;37377;45.186;9.778;2023-04-03T07:20:25;10.35;;;6.72;;
51292;SDS011;37377;45.186;9.778;2023-04-03T07:22:52;19.80;;;7.03;;
51292;SDS011;37377;45.186;9.778;2023-04-03T07:25:19;27.73;;;7.72;;
51292;SDS011;37377;45.186;9.778;2023-04-03T07:27:46;23.60;;;7.90;;
51292;SDS011;37377;45.186;9.778;2023-04-03T07:30:13;24.02;;;7.75;;
51292;SDS011;37377;45.186;9.778;2023-04-03T07:32:40;14.57;;;7.53;;
51292;SDS011;37377;45.186;9.778;2023-04-03T07:35:07;16.35;;;5.95;;
51292;SDS011;37377;45.186;9.778;2023-04-03T07:37:34;17.45;;;5.97;;
51292;SDS011;37377;45.186;9.778;2023-04-03T07:40:02;19.77;;;6.13;;
51292;SDS011;37377;45.186;9.778;2023-04-03T07:42:30;9.88;;;5.90;;
51292;SDS011;37377;45.186;9.778;2023-04-03T07:44:57;13.38;;;5.60;;
51292;SDS011;37377;45.186;9.778;2023-04-03T07:47:23;7.55;;;5.47;;
51292;SDS011;37377;45.186;9.778;2023-04-03T07:49:50;10.48;;;5.35;;
51292;SDS011;37377;45.186;9.778;2023-04-03T07:52:17;11.02;;;5.18;;
51292;SDS011;37377;45.186;9.778;2023-04-03T07:54:44;9.35;;;5.25;;
51292;SDS011;37377;45.186;9.778;2023-04-03T07:57:10;9.57;;;5.68;;
51292;SDS011;37377;45.186;9.778;2023-04-03T07:59:38;10.45;;;5.32;;
51292;SDS011;37377;45.186;9.778;2023-04-03T08:02:08;9.38;;;5.38;;
51292;SDS011;37377;45.186;9.778;2023-04-03T08:04:35;17.77;;;5.90;;
51292;SDS011;37377;45.186;9.778;2023-04-03T08:07:02;9.02;;;5.25;;
51292;SDS011;37377;45.186;9.778;2023-04-03T08:09:29;11.68;;;5.25;;
51292;SDS011;37377;45.186;9.778;2023-04-03T08:11:56;8.82;;;5.20;;
51292;SDS011;37377;45.186;9.778;2023-04-03T08:14:23;11.52;;;8.88;;
51292;SDS011;37377;45.186;9.778;2023-04-03T08:16:49;5.50;;;4.78;;
51292;SDS011;37377;45.186;9.778;2023-04-03T08:19:16;8.63;;;4.22;;
51292;SDS011;37377;45.186;9.778;2023-04-03T08:21:53;8.90;;;4.47;;
51292;SDS011;37377;45.186;9.778;2023-04-03T08:24:20;5.78;;;4.22;;
51292;SDS011;37377;45.186;9.778;2023-04-03T08:26:48;5.55;;;4.00;;
51292;SDS011;37377;45.186;9.778;2023-04-03T08:29:15;8.35;;;3.50;;
51292;SDS011;37377;45.186;9.778;2023-04-03T08:31:42;5.07;;;3.65;;
51292;SDS011;37377;45.186;9.778;2023-04-03T08:34:09;7.18;;;3.22;;
51292;SDS011;37377;45.186;9.778;2023-04-03T08:36:36;5.47;;;2.58;;
51292;SDS011;37377;45.186;9.778;2023-04-03T08:39:03;6.38;;;2.45;;
51292;SDS011;37377;45.186;9.778;2023-04-03T08:41:34;12.23;;;2.90;;
51292;SDS011;37377;45.186;9.778;2023-04-03T08:46:56;7.30;;;2.83;;
51292;SDS011;37377;45.186;9.778;2023-04-03T08:49:37;10.32;;;2.97;;
51292;SDS011;37377;45.186;9.778;2023-04-03T08:52:10;11.23;;;2.67;;
51292;SDS011;37377;45.186;9.778;2023-04-03T08:57:32;6.47;;;2.63;;
51292;SDS011;37377;45.186;9.778;2023-04-03T09:02:54;4.57;;;2.67;;
51292;SDS011;37377;45.186;9.778;2023-04-03T09:05:39;3.83;;;2.72;;
51292;SDS011;37377;45.186;9.778;2023-04-03T09:08:18;5.63;;;2.95;;
51292;SDS011;37377;45.186;9.778;2023-04-03T09:10:52;4.82;;;2.33;;
51292;SDS011;37377;45.186;9.778;2023-04-03T09:19:36;6.90;;;2.42;;
51292;SDS011;37377;45.186;9.778;2023-04-03T09:24:45;2.97;;;2.22;;
51292;SDS011;37377;45.186;9.778;2023-04-03T09:27:12;7.22;;;2.72;;
51292;SDS011;37377;45.186;9.778;2023-04-03T09:29:40;6.07;;;2.70;;
51292;SDS011;37377;45.186;9.778;2023-04-03T09:32:17;9.63;;;2.75;;
51292;SDS011;37377;45.186;9.778;2023-04-03T09:34:45;6.93;;;2.80;;
51292;SDS011;37377;45.186;9.778;2023-04-03T09:37:12;7.03;;;2.50;;
51292;SDS011;37377;45.186;9.778;2023-04-03T09:39:58;9.57;;;2.20;;
51292;SDS011;37377;45.186;9.778;2023-04-03T09:42:26;38.13;;;3.00;;
51292;SDS011;37377;45.186;9.778;2023-04-03T09:44:54;6.07;;;2.13;;
51292;SDS011;37377;45.186;9.778;2023-04-03T09:47:27;6.80;;;2.38;;
51292;SDS011;37377;45.186;9.778;2023-04-03T09:52:40;3.00;;;2.25;;
51292;SDS011;37377;45.186;9.778;2023-04-03T09:55:41;6.55;;;3.05;;
51292;SDS011;37377;45.186;9.778;2023-04-03T09:58:04;3.23;;;2.40;;
51292;SDS011;37377;45.186;9.778;2023-04-03T10:00:37;4.45;;;1.95;;
51292;SDS011;37377;45.186;9.778;2023-04-03T10:03:09;13.43;;;2.50;;
51292;SDS011;37377;45.186;9.778;2023-04-03T10:05:58;4.88;;;2.05;;
51292;SDS011;37377;45.186;9.778;2023-04-03T10:08:30;6.65;;;2.50;;
51292;SDS011;37377;45.186;9.778;2023-04-03T10:11:14;5.50;;;2.28;;
51292;SDS011;37377;45.186;9.778;2023-04-03T10:13:58;3.42;;;2.03;;
51292;SDS011;37377;45.186;9.778;2023-04-03T10:21:33;5.07;;;1.65;;
51292;SDS011;37377;45.186;9.778;2023-04-03T10:24:08;3.03;;;1.30;;
51292;SDS011;37377;45.186;9.778;2023-04-03T10:29:30;2.35;;;1.80;;
51292;SDS011;37377;45.186;9.778;2023-04-03T10:32:15;5.20;;;1.48;;
51292;SDS011;37377;45.186;9.778;2023-04-03T10:34:46;13.20;;;2.33;;
51292;SDS011;37377;45.186;9.778;2023-04-03T10:40:04;6.00;;;1.73;;
51292;SDS011;37377;45.186;9.778;2023-04-03T10:42:36;6.88;;;1.90;;
51292;SDS011;37377;45.186;9.778;2023-04-03T10:48:11;6.53;;;2.53;;
51292;SDS011;37377;45.186;9.778;2023-04-03T10:55:38;4.10;;;2.15;;
51292;SDS011;37377;45.186;9.778;2023-04-03T10:58:09;8.30;;;1.90;;
51292;SDS011;37377;45.186;9.778;2023-04-03T11:00:42;8.00;;;1.85;;
51292;SDS011;37377;45.186;9.778;2023-04-03T11:03:12;5.85;;;1.85;;
51292;SDS011;37377;45.186;9.778;2023-04-03T11:05:42;6.40;;;1.95;;
51292;SDS011;37377;45.186;9.778;2023-04-03T11:08:17;3.42;;;1.80;;
51292;SDS011;37377;45.186;9.778;2023-04-03T11:10:51;3.92;;;1.88;;
51292;SDS011;37377;45.186;9.778;2023-04-03T11:13:54;2.33;;;1.75;;
51292;SDS011;37377;45.186;9.778;2023-04-03T11:16:17;6.82;;;1.70;;
51292;SDS011;37377;45.186;9.778;2023-04-03T11:18:53;4.60;;;1.70;;
51292;SDS011;37377;45.186;9.778;2023-04-03T11:23:51;3.30;;;1.77;;
51292;SDS011;37377;45.186;9.778;2023-04-03T11:26:22;3.55;;;2.08;;
51292;SDS011;37377;45.186;9.778;2023-04-03T11:28:56;4.43;;;1.60;;
51292;SDS011;37377;45.186;9.778;2023-04-03T11:36:53;2.67;;;1.60;;
51292;SDS011;37377;45.186;9.778;2023-04-03T11:39:23;3.80;;;1.55;;
51292;SDS011;37377;45.186;9.778;2023-04-03T11:41:50;4.65;;;1.88;;
51292;SDS011;37377;45.186;9.778;2023-04-03T11:44:36;4.93;;;1.63;;
51292;SDS011;37377;45.186;9.778;2023-04-03T11:47:08;2.53;;;1.60;;
51292;SDS011;37377;45.186;9.778;2023-04-03T12:16:30;3.90;;;1.60;;
51292;SDS011;37377;45.186;9.778;2023-04-03T12:26:44;3.10;;;1.80;;
51292;SDS011;37377;45.186;9.778;2023-04-03T12:29:21;1.85;;;1.15;;
51292;SDS011;37377;45.186;9.778;2023-04-03T12:45:16;3.50;;;1.40;;
51292;SDS011;37377;45.186;9.778;2023-04-03T12:47:33;4.57;;;1.27;;
51292;SDS011;37377;45.186;9.778;2023-04-03T12:50:03;6.70;;;1.52;;
51292;SDS011;37377;45.186;9.778;2023-04-03T12:54:58;8.82;;;1.50;;
51292;SDS011;37377;45.186;9.778;2023-04-03T12:57:26;3.25;;;1.30;;
51292;SDS011;37377;45.186;9.778;2023-04-03T12:59:54;5.25;;;1.20;;
51292;SDS011;37377;45.186;9.778;2023-04-03T13:02:22;5.28;;;1.45;;
51292;SDS011;37377;45.186;9.778;2023-04-03T13:04:51;5.63;;;1.20;;
51292;SDS011;37377;45.186;9.778;2023-04-03T13:07:23;3.75;;;1.10;;
51292;SDS011;37377;45.186;9.778;2023-04-03T13:09:55;5.25;;;1.20;;
51292;SDS011;37377;45.186;9.778;2023-04-03T13:12:22;4.10;;;1.10;;
51292;SDS011;37377;45.186;9.778;2023-04-03T13:14:53;1.58;;;1.10;;
51292;SDS011;37377;45.186;9.778;2023-04-03T13:17:21;6.70;;;0.90;;
51292;SDS011;37377;45.186;9.778;2023-04-03T13:19:48;1.70;;;1.00;;
51292;SDS011;37377;45.186;9.778;2023-04-03T13:24:44;11.15;;;1.60;;
51292;SDS011;37377;45.186;9.778;2023-04-03T13:27:13;5.30;;;1.40;;
51292;SDS011;37377;45.186;9.778;2023-04-03T13:29:41;3.58;;;1.20;;
51292;SDS011;37377;45.186;9.778;2023-04-03T13:32:14;10.55;;;1.35;;
51292;SDS011;37377;45.186;9.778;2023-04-03T13:34:44;6.32;;;1.70;;
51292;SDS011;37377;45.186;9.778;2023-04-03T13:37:23;5.60;;;1.90;;
51292;SDS011;37377;45.186;9.778;2023-04-03T13:40:23;10.70;;;2.20;;
51292;SDS011;37377;45.186;9.778;2023-04-03T13:42:43;4.20;;;1.83;;
51292;SDS011;37377;45.186;9.778;2023-04-03T13:47:40;7.70;;;1.73;;
51292;SDS011;37377;45.186;9.778;2023-04-03T13:52:48;7.53;;;1.52;;
51292;SDS011;37377;45.186;9.778;2023-04-03T13:55:26;9.93;;;2.00;;
51292;SDS011;37377;45.186;9.778;2023-04-03T13:57:56;6.63;;;1.80;;
51292;SDS011;37377;45.186;9.778;2023-04-03T14:00:36;9.30;;;1.90;;
51292;SDS011;37377;45.186;9.778;2023-04-03T14:05:52;3.35;;;1.48;;
51292;SDS011;37377;45.186;9.778;2023-04-03T14:08:19;1.98;;;1.25;;
51292;SDS011;37377;45.186;9.778;2023-04-03T14:11:01;10.13;;;1.90;;
51292;SDS011;37377;45.186;9.778;2023-04-03T14:13:29;9.65;;;1.80;;
51292;SDS011;37377;45.186;9.778;2023-04-03T14:15:56;6.90;;;1.50;;
51292;SDS011;37377;45.186;9.778;2023-04-03T14:18:34;7.35;;;1.65;;
51292;SDS011;37377;45.186;9.778;2023-04-03T14:21:03;11.20;;;1.33;;
51292;SDS011;37377;45.186;9.778;2023-04-03T14:23:30;13.23;;;1.77;;
51292;SDS011;37377;45.186;9.778;2023-04-03T14:25:57;5.55;;;1.70;;
51292;SDS011;37377;45.186;9.778;2023-04-03T14:28:24;11.40;;;1.55;;
51292;SDS011;37377;45.186;9.778;2023-04-03T14:30:52;5.93;;;1.48;;
51292;SDS011;37377;45.186;9.778;2023-04-03T14:33:20;9.23;;;1.48;;
51292;SDS011;37377;45.186;9.778;2023-04-03T14:35:48;6.97;;;1.50;;
51292;SDS011;37377;45.186;9.778;2023-04-03T14:38:25;14.10;;;1.70;;
51292;SDS011;37377;45.186;9.778;2023-04-03T14:40:53;9.48;;;1.52;;
51292;SDS011;37377;45.186;9.778;2023-04-03T14:43:26;5.15;;;1.55;;
51292;SDS011;37377;45.186;9.778;2023-04-03T14:45:53;7.57;;;1.52;;
51292;SDS011;37377;45.186;9.778;2023-04-03T14:48:22;7.97;;;1.88;;
51292;SDS011;37377;45.186;9.778;2023-04-03T14:50:50;7.40;;;1.48;;
51292;SDS011;37377;45.186;9.778;2023-04-03T14:53:31;12.70;;;1.40;;
51292;SDS011;37377;45.186;9.778;2023-04-03T14:58:31;8.52;;;1.77;;
51292;SDS011;37377;45.186;9.778;2023-04-03T15:00:58;10.57;;;2.15;;
51292;SDS011;37377;45.186;9.778;2023-04-03T15:03:26;6.57;;;1.67;;
51292;SDS011;37377;45.186;9.778;2023-04-03T15:05:53;9.02;;;1.60;;
51292;SDS011;37377;45.186;9.778;2023-04-03T15:08:24;6.88;;;1.40;;
51292;SDS011;37377;45.186;9.778;2023-04-03T15:10:52;6.20;;;1.45;;
51292;SDS011;37377;45.186;9.778;2023-04-03T15:13:19;5.05;;;1.40;;
51292;SDS011;37377;45.186;9.778;2023-04-03T15:15:46;6.80;;;1.40;;
51292;SDS011;37377;45.186;9.778;2023-04-03T15:18:15;8.93;;;1.85;;
51292;SDS011;37377;45.186;9.778;2023-04-03T15:20:44;6.28;;;2.10;;
51292;SDS011;37377;45.186;9.778;2023-04-03T15:23:11;5.00;;;1.90;;
51292;SDS011;37377;45.186;9.778;2023-04-03T15:25:38;3.88;;;1.70;;
51292;SDS011;37377;45.186;9.778;2023-04-03T15:28:06;7.25;;;2.53;;
51292;SDS011;37377;45.186;9.778;2023-04-03T15:30:33;8.05;;;2.00;;
51292;SDS011;37377;45.186;9.778;2023-04-03T15:33:03;13.10;;;1.92;;
51292;SDS011;37377;45.186;9.778;2023-04-03T15:35:30;5.32;;;1.80;;
51292;SDS011;37377;45.186;9.778;2023-04-03T15:37:57;7.93;;;2.28;;
51292;SDS011;37377;45.186;9.778;2023-04-03T15:40:24;9.55;;;2.58;;
51292;SDS011;37377;45.186;9.778;2023-04-03T15:42:52;12.95;;;1.83;;
51292;SDS011;37377;45.186;9.778;2023-04-03T15:45:20;8.93;;;1.58;;
51292;SDS011;37377;45.186;9.778;2023-04-03T15:47:47;7.80;;;1.42;;
51292;SDS011;37377;45.186;9.778;2023-04-03T15:50:14;6.97;;;1.83;;
51292;SDS011;37377;45.186;9.778;2023-04-03T15:52:41;5.53;;;1.52;;
51292;SDS011;37377;45.186;9.778;2023-04-03T15:55:08;11.50;;;1.50;;
51292;SDS011;37377;45.186;9.778;2023-04-03T15:57:37;7.40;;;1.60;;
51292;SDS011;37377;45.186;9.778;2023-04-03T16:00:09;7.55;;;1.60;;
51292;SDS011;37377;45.186;9.778;2023-04-03T16:02:37;4.03;;;1.50;;
51292;SDS011;37377;45.186;9.778;2023-04-03T16:05:04;14.48;;;1.90;;
51292;SDS011;37377;45.186;9.778;2023-04-03T16:07:30;6.43;;;1.40;;
51292;SDS011;37377;45.186;9.778;2023-04-03T16:09:57;3.88;;;1.70;;
51292;SDS011;37377;45.186;9.778;2023-04-03T16:12:25;6.13;;;1.40;;
51292;SDS011;37377;45.186;9.778;2023-04-03T16:14:52;5.55;;;1.13;;
51292;SDS011;37377;45.186;9.778;2023-04-03T16:17:19;9.77;;;2.83;;
51292;SDS011;37377;45.186;9.778;2023-04-03T16:19:46;7.95;;;1.52;;
51292;SDS011;37377;45.186;9.778;2023-04-03T16:22:13;5.22;;;1.50;;
51292;SDS011;37377;45.186;9.778;2023-04-03T16:24:40;8.27;;;1.30;;
51292;SDS011;37377;45.186;9.778;2023-04-03T16:27:07;8.13;;;1.40;;
51292;SDS011;37377;45.186;9.778;2023-04-03T16:29:33;10.35;;;1.63;;
51292;SDS011;37377;45.186;9.778;2023-04-03T16:32:00;13.27;;;1.73;;
51292;SDS011;37377;45.186;9.778;2023-04-03T16:34:27;9.25;;;1.20;;
51292;SDS011;37377;45.186;9.778;2023-04-03T16:36:56;2.40;;;1.20;;
51292;SDS011;37377;45.186;9.778;2023-04-03T16:39:23;4.07;;;1.45;;
51292;SDS011;37377;45.186;9.778;2023-04-03T16:41:50;11.18;;;1.30;;
51292;SDS011;37377;45.186;9.778;2023-04-03T16:44:17;6.68;;;1.65;;
51292;SDS011;37377;45.186;9.778;2023-04-03T16:46:45;10.73;;;1.52;;